Time;durP1;ratioP1;P1;durP2;ratioP2;P2;SDS_P1;SDS_P2;PMS_P1;PMS_P2;Temp;Humidity;BMP_temperature;BMP_pressure;BME280_temperature;BME280_humidity;BME280_pressure;Samples;Min_cycle;Max_cycle;Signal;HPM_P1;HPM_P2
2022/12/15 00:39:36;;;;;;;32.85;17.75;;;;;;;;;;4929755;29;20032;-75
2022/12/15 00:42:02;;;;;;;32.78;16.88;;;;;;;;;;4933579;29;20028;-75
2022/12/15 00:44:28;;;;;;;29.30;15.88;;;;;;;;;;4935592;29;20032;-75
2022/12/15 00:46:53;;;;;;;28.83;16.95;;;;;;;;;;4935710;29;20035;-75
2022/12/15 01:22:25;;;;;;;29.98;16.25;;;;;;;;;;4934379;29;20031;-75
2022/12/15 01:24:51;;;;;;;29.08;15.85;;;;;;;;;;4934490;29;20048;-74
2022/12/15 01:27:17;;;;;;;39.33;17.05;;;;;;;;;;4934016;29;20036;-75
2022/12/15 01:29:43;;;;;;;23.08;15.50;;;;;;;;;;4935088;29;20394;-75
2022/12/15 01:32:09;;;;;;;27.40;15.90;;;;;;;;;;4934436;29;20039;-74
2022/12/15 01:34:35;;;;;;;32.33;16.25;;;;;;;;;;4934557;28;20020;-74
2022/12/15 01:37:01;;;;;;;29.42;16.15;;;;;;;;;;4934876;29;20087;-74
2022/12/15 01:40:43;;;;;;;27.73;16.42;;;;;;;;;;4934583;29;20106;-74
2022/12/15 01:42:13;;;;;;;30.92;16.77;;;;;;;;;;4932169;29;20402;-74
2022/12/15 01:44:38;;;;;;;27.95;16.77;;;;;;;;;;4938837;28;20063;-74
2022/12/15 01:47:07;;;;;;;26.27;17.25;;;;;;;;;;4934593;29;20635;-75
2022/12/15 01:49:35;;;;;;;34.78;17.60;;;;;;;;;;4934386;29;20121;-74
2022/12/15 01:52:04;;;;;;;30.33;17.17;;;;;;;;;;4934351;28;20048;-75
2022/12/15 01:54:36;;;;;;;31.88;18.65;;;;;;;;;;4933824;29;20390;-74
2022/12/15 01:57:06;;;;;;;25.75;17.08;;;;;;;;;;4934415;29;20462;-74
2022/12/15 01:59:37;;;;;;;27.98;17.35;;;;;;;;;;4933476;28;20045;-74
2022/12/15 02:02:04;;;;;;;31.40;17.27;;;;;;;;;;4934369;29;20047;-74
2022/12/15 02:04:31;;;;;;;28.45;16.42;;;;;;;;;;4934140;29;20030;-74
2022/12/15 02:06:57;;;;;;;31.65;18.38;;;;;;;;;;4934320;29;20039;-74
2022/12/15 02:09:25;;;;;;;37.63;18.42;;;;;;;;;;4934103;29;20032;-74
2022/12/15 02:11:51;;;;;;;28.52;17.02;;;;;;;;;;4934348;29;20078;-74
2022/12/15 02:14:43;;;;;;;31.65;17.25;;;;;;;;;;4933841;28;20051;-75
2022/12/15 02:17:15;;;;;;;27.45;16.38;;;;;;;;;;4929398;29;20043;-75
2022/12/15 02:20:18;;;;;;;26.77;16.50;;;;;;;;;;4934017;29;20032;-75
2022/12/15 02:23:21;;;;;;;31.67;16.40;;;;;;;;;;4933841;29;20409;-74
2022/12/15 02:26:05;;;;;;;27.30;16.48;;;;;;;;;;4933506;29;20044;-74
2022/12/15 02:28:50;;;;;;;28.77;16.83;;;;;;;;;;4933747;29;20036;-75
2022/12/15 02:34:16;;;;;;;38.03;17.17;;;;;;;;;;4929048;29;20024;-75
2022/12/15 02:36:47;;;;;;;27.88;15.95;;;;;;;;;;4927842;29;20035;-73
2022/12/15 02:39:14;;;;;;;27.83;16.23;;;;;;;;;;4936796;29;20118;-74
2022/12/15 02:41:43;;;;;;;29.77;16.25;;;;;;;;;;4937694;29;20032;-74
2022/12/15 02:44:13;;;;;;;29.05;15.52;;;;;;;;;;4937097;29;20079;-74
2022/12/15 02:46:58;;;;;;;28.65;17.10;;;;;;;;;;4937448;29;20038;-75
2022/12/15 02:49:39;;;;;;;27.85;15.35;;;;;;;;;;4941134;28;20146;-74
2022/12/15 02:52:11;;;;;;;26.55;15.73;;;;;;;;;;4936076;28;20122;-74
2022/12/15 02:55:05;;;;;;;25.45;16.35;;;;;;;;;;4938176;29;20042;-74
2022/12/15 02:58:00;;;;;;;25.23;16.65;;;;;;;;;;4928879;29;20501;-75
2022/12/15 03:00:28;;;;;;;24.27;15.38;;;;;;;;;;4934706;29;20465;-73
2022/12/15 03:02:54;;;;;;;30.75;16.92;;;;;;;;;;4937315;29;20028;-73
2022/12/15 03:05:23;;;;;;;22.40;14.43;;;;;;;;;;4936220;29;20040;-73
2022/12/15 03:07:51;;;;;;;29.73;15.38;;;;;;;;;;4938088;29;20091;-74
2022/12/15 03:10:17;;;;;;;36.92;16.20;;;;;;;;;;4937670;29;20055;-74
2022/12/15 03:12:44;;;;;;;27.17;15.90;;;;;;;;;;4937765;29;20034;-73
2022/12/15 03:15:10;;;;;;;30.00;16.30;;;;;;;;;;4938358;29;20034;-73
2022/12/15 03:17:37;;;;;;;29.80;15.60;;;;;;;;;;4939773;29;20027;-74
2022/12/15 03:20:04;;;;;;;27.05;15.73;;;;;;;;;;4939494;29;20037;-73
2022/12/15 03:22:30;;;;;;;30.00;16.65;;;;;;;;;;4939254;29;20023;-73
2022/12/15 03:24:56;;;;;;;32.00;15.38;;;;;;;;;;4939246;29;20047;-72
2022/12/15 03:27:22;;;;;;;27.75;15.38;;;;;;;;;;4938165;29;20050;-73
2022/12/15 03:29:48;;;;;;;29.02;15.00;;;;;;;;;;4937961;29;20059;-74
2022/12/15 03:32:14;;;;;;;32.92;14.50;;;;;;;;;;4936822;29;20458;-73
2022/12/15 03:34:40;;;;;;;29.45;16.35;;;;;;;;;;4937933;28;20063;-73
2022/12/15 03:37:06;;;;;;;27.83;14.80;;;;;;;;;;4937599;29;20077;-72
2022/12/15 03:39:33;;;;;;;26.73;15.30;;;;;;;;;;4937458;29;20043;-74
2022/12/15 03:41:59;;;;;;;23.10;15.05;;;;;;;;;;4936140;29;20389;-73
2022/12/15 03:44:25;;;;;;;24.35;15.77;;;;;;;;;;4936956;29;20488;-73
2022/12/15 03:46:51;;;;;;;25.08;14.82;;;;;;;;;;4937545;29;20031;-73
2022/12/15 03:49:17;;;;;;;23.58;14.10;;;;;;;;;;4936563;29;20086;-73
2022/12/15 03:51:43;;;;;;;28.27;15.55;;;;;;;;;;4937495;29;20027;-73
2022/12/15 03:54:12;;;;;;;26.15;14.70;;;;;;;;;;4937235;28;20059;-74
2022/12/15 03:56:38;;;;;;;21.77;14.13;;;;;;;;;;4937049;29;20164;-73
2022/12/15 03:59:04;;;;;;;29.05;14.77;;;;;;;;;;4936867;29;20387;-74
2022/12/15 04:01:32;;;;;;;38.35;15.35;;;;;;;;;;4935865;29;20037;-74
2022/12/15 04:03:59;;;;;;;29.40;15.82;;;;;;;;;;4937130;28;20394;-73
2022/12/15 04:06:25;;;;;;;26.77;14.95;;;;;;;;;;4937183;29;20046;-75
2022/12/15 04:08:51;;;;;;;33.38;15.13;;;;;;;;;;4936864;29;20513;-73
2022/12/15 04:11:17;;;;;;;21.45;13.90;;;;;;;;;;4937706;29;20066;-75
2022/12/15 04:13:43;;;;;;;22.00;14.02;;;;;;;;;;4935904;29;20095;-74
2022/12/15 04:16:09;;;;;;;23.38;14.50;;;;;;;;;;4932542;29;20039;-74
2022/12/15 04:18:35;;;;;;;25.80;13.98;;;;;;;;;;4933408;29;20096;-73
2022/12/15 04:21:02;;;;;;;23.98;15.35;;;;;;;;;;4932785;29;20044;-74
2022/12/15 04:23:28;;;;;;;25.20;14.43;;;;;;;;;;4931126;29;20466;-75
2022/12/15 05:32:06;;;;;;;57.83;21.10;;;;;;;;;;4934883;29;20043;-74
2022/12/15 05:34:33;;;;;;;30.83;15.07;;;;;;;;;;4934723;29;20090;-74
2022/12/15 05:37:01;;;;;;;68.03;19.23;;;;;;;;;;4930545;29;20453;-75
2022/12/15 05:39:27;;;;;;;56.80;18.77;;;;;;;;;;4935306;29;20028;-75
2022/12/15 05:41:54;;;;;;;47.08;18.50;;;;;;;;;;4935359;29;20122;-75
2022/12/15 05:44:20;;;;;;;58.17;21.58;;;;;;;;;;4934390;29;20465;-75
2022/12/15 05:46:46;;;;;;;36.17;16.08;;;;;;;;;;4935091;29;20034;-74
2022/12/15 05:49:14;;;;;;;34.05;16.27;;;;;;;;;;4935043;29;20028;-75
2022/12/15 05:51:42;;;;;;;29.15;15.30;;;;;;;;;;4932643;29;20096;-75
2022/12/15 05:54:09;;;;;;;30.33;17.05;;;;;;;;;;4934758;29;20421;-74
2022/12/15 05:56:35;;;;;;;54.78;18.65;;;;;;;;;;4933918;29;20043;-74
2022/12/15 05:59:01;;;;;;;50.50;19.08;;;;;;;;;;4934103;29;20024;-74
2022/12/15 06:01:30;;;;;;;56.42;18.63;;;;;;;;;;4931956;29;20095;-74
2022/12/15 06:03:57;;;;;;;38.28;18.23;;;;;;;;;;4934501;29;20131;-75
2022/12/15 06:06:23;;;;;;;64.75;20.83;;;;;;;;;;4934834;29;20430;-75
2022/12/15 06:08:49;;;;;;;46.00;18.90;;;;;;;;;;4934313;29;20032;-75
2022/12/15 06:11:17;;;;;;;35.58;18.08;;;;;;;;;;4945379;29;20035;-74
2022/12/15 06:13:44;;;;;;;38.35;18.02;;;;;;;;;;4930769;29;20042;-75
2022/12/15 06:16:13;;;;;;;41.35;18.55;;;;;;;;;;4933304;29;20461;-75
2022/12/15 06:18:42;;;;;;;45.92;17.95;;;;;;;;;;4932884;29;20023;-75
2022/12/15 06:21:11;;;;;;;46.50;18.65;;;;;;;;;;4933576;29;20042;-74
2022/12/15 06:23:38;;;;;;;56.92;18.08;;;;;;;;;;4931586;29;20474;-75
2022/12/15 06:26:12;;;;;;;58.42;19.55;;;;;;;;;;4934770;29;20063;-75
2022/12/15 06:28:38;;;;;;;40.53;18.27;;;;;;;;;;4935448;29;20193;-74
2022/12/15 06:31:06;;;;;;;49.30;17.52;;;;;;;;;;4936570;29;20035;-74
2022/12/15 06:33:32;;;;;;;32.60;15.30;;;;;;;;;;4934998;29;20059;-75
2022/12/15 06:36:03;;;;;;;27.40;15.27;;;;;;;;;;4935066;29;20776;-74
2022/12/15 06:38:29;;;;;;;45.38;17.83;;;;;;;;;;4934520;29;20178;-74
2022/12/15 06:40:56;;;;;;;43.90;19.08;;;;;;;;;;4934789;29;20063;-75
2022/12/15 06:43:22;;;;;;;47.00;20.23;;;;;;;;;;4933834;29;20398;-74
2022/12/15 06:45:49;;;;;;;64.57;22.88;;;;;;;;;;4934359;29;20042;-74
2022/12/15 06:48:15;;;;;;;40.03;17.58;;;;;;;;;;4934164;29;20185;-75
2022/12/15 06:50:41;;;;;;;31.90;16.65;;;;;;;;;;4934340;29;20482;-74
2022/12/15 06:53:07;;;;;;;31.00;15.88;;;;;;;;;;4934357;29;20127;-75
2022/12/15 06:55:32;;;;;;;33.33;16.83;;;;;;;;;;4934953;29;20028;-75
2022/12/15 06:57:58;;;;;;;35.70;17.40;;;;;;;;;;4934385;29;20498;-78
2022/12/15 07:00:26;;;;;;;31.45;15.45;;;;;;;;;;4933013;29;20437;-75
2022/12/15 07:02:53;;;;;;;33.58;15.60;;;;;;;;;;4933164;29;20055;-75
2022/12/15 07:05:20;;;;;;;35.20;15.60;;;;;;;;;;4932701;29;20031;-74
2022/12/15 07:07:47;;;;;;;33.60;15.65;;;;;;;;;;4934277;29;20035;-74
2022/12/15 07:10:13;;;;;;;24.27;14.15;;;;;;;;;;4932749;29;20459;-75
2022/12/15 07:12:39;;;;;;;27.10;14.65;;;;;;;;;;4926897;29;20815;-75
2022/12/15 07:15:06;;;;;;;43.30;16.40;;;;;;;;;;4933632;29;20091;-75
2022/12/15 07:17:34;;;;;;;32.10;15.50;;;;;;;;;;4933738;29;20090;-74
2022/12/15 07:20:00;;;;;;;37.80;16.70;;;;;;;;;;4933589;29;20505;-74
2022/12/15 07:22:27;;;;;;;38.83;17.25;;;;;;;;;;4934204;29;20027;-75
2022/12/15 07:24:53;;;;;;;35.63;16.05;;;;;;;;;;4935125;29;20365;-75
2022/12/15 07:27:19;;;;;;;39.70;17.23;;;;;;;;;;4938087;29;20027;-73
2022/12/15 07:29:44;;;;;;;40.28;16.85;;;;;;;;;;4938168;29;20035;-76
2022/12/15 07:32:11;;;;;;;34.03;16.27;;;;;;;;;;4933293;29;20064;-76
2022/12/15 07:34:37;;;;;;;41.92;16.38;;;;;;;;;;4932391;29;20059;-76
2022/12/15 07:37:03;;;;;;;37.90;16.75;;;;;;;;;;4936924;29;20031;-74
2022/12/15 07:39:29;;;;;;;36.08;17.08;;;;;;;;;;4936838;29;20079;-77
2022/12/15 07:41:55;;;;;;;32.75;16.63;;;;;;;;;;4952512;28;20032;-76
2022/12/15 07:44:22;;;;;;;37.17;18.17;;;;;;;;;;4934364;29;20054;-77
2022/12/15 07:46:48;;;;;;;40.08;17.45;;;;;;;;;;4936401;28;20115;-74
2022/12/15 07:49:16;;;;;;;24.60;15.02;;;;;;;;;;4933938;29;20027;-74
2022/12/15 07:51:42;;;;;;;48.85;19.55;;;;;;;;;;4934386;29;20055;-78
2022/12/15 07:54:10;;;;;;;43.67;17.70;;;;;;;;;;4937285;29;20020;-75
2022/12/15 07:56:39;;;;;;;36.78;17.73;;;;;;;;;;4935136;29;20484;-75
2022/12/15 07:59:06;;;;;;;31.58;17.98;;;;;;;;;;4932416;29;20090;-76
2022/12/15 08:01:33;;;;;;;36.22;17.40;;;;;;;;;;4935837;29;20573;-77
2022/12/15 08:04:01;;;;;;;31.45;15.95;;;;;;;;;;4934142;29;20431;-76
2022/12/15 08:06:27;;;;;;;28.95;16.67;;;;;;;;;;4935349;29;20047;-75
2022/12/15 08:08:52;;;;;;;29.92;16.75;;;;;;;;;;4936123;29;20442;-77
2022/12/15 08:11:23;;;;;;;34.08;17.95;;;;;;;;;;4948928;28;20086;-75
2022/12/15 08:13:49;;;;;;;44.35;18.98;;;;;;;;;;4935588;29;20501;-76
2022/12/15 08:16:15;;;;;;;45.38;18.48;;;;;;;;;;4935839;29;20019;-76
2022/12/15 08:18:41;;;;;;;43.83;17.20;;;;;;;;;;4948281;29;20083;-75
2022/12/15 08:21:08;;;;;;;32.10;16.85;;;;;;;;;;4950152;29;20465;-75
2022/12/15 08:23:35;;;;;;;35.75;17.85;;;;;;;;;;4932805;29;20044;-73
2022/12/15 08:26:10;;;;;;;31.92;17.02;;;;;;;;;;4929082;29;20040;-75
2022/12/15 08:28:38;;;;;;;32.25;15.65;;;;;;;;;;4926643;29;20362;-75
2022/12/15 08:31:09;;;;;;;33.65;16.58;;;;;;;;;;4954310;29;20031;-76
2022/12/15 08:33:38;;;;;;;32.97;17.60;;;;;;;;;;4954157;28;20039;-76
2022/12/15 08:36:08;;;;;;;36.28;16.60;;;;;;;;;;4969238;28;20023;-77
2022/12/15 08:38:37;;;;;;;33.17;17.02;;;;;;;;;;4949074;28;20453;-75
2022/12/15 08:41:15;;;;;;;55.28;19.20;;;;;;;;;;4935135;29;20024;-77
2022/12/15 08:43:48;;;;;;;38.15;18.38;;;;;;;;;;4934496;29;20035;-77
2022/12/15 08:46:15;;;;;;;26.05;16.42;;;;;;;;;;4948055;29;20035;-75
2022/12/15 08:48:42;;;;;;;38.00;17.13;;;;;;;;;;4935079;28;20043;-78
2022/12/15 08:51:10;;;;;;;38.38;17.10;;;;;;;;;;4914428;29;20490;-77
2022/12/15 08:53:39;;;;;;;33.78;13.82;;;;;;;;;;4916458;29;20031;-75
2022/12/15 08:56:11;;;;;;;40.47;15.55;;;;;;;;;;4927446;29;20087;-76
2022/12/15 08:58:39;;;;;;;33.33;14.73;;;;;;;;;;4915526;29;20099;-73
2022/12/15 09:01:07;;;;;;;33.78;14.45;;;;;;;;;;4929762;29;20031;-74
2022/12/15 09:03:34;;;;;;;25.13;13.68;;;;;;;;;;4933196;28;20118;-74
2022/12/15 09:06:12;;;;;;;23.88;13.60;;;;;;;;;;4914834;29;20035;-76
2022/12/15 09:08:38;;;;;;;21.70;13.88;;;;;;;;;;4915716;29;20031;-76
2022/12/15 09:11:06;;;;;;;26.33;12.65;;;;;;;;;;4930176;29;20063;-75
2022/12/15 09:13:32;;;;;;;24.40;13.18;;;;;;;;;;4916008;29;20036;-75
2022/12/15 09:15:59;;;;;;;27.92;12.25;;;;;;;;;;4929699;29;20032;-76
2022/12/15 09:18:26;;;;;;;17.80;12.27;;;;;;;;;;4914183;29;20493;-75
2022/12/15 09:20:53;;;;;;;18.80;11.43;;;;;;;;;;4929383;29;20028;-77
2022/12/15 09:23:21;;;;;;;29.00;12.50;;;;;;;;;;4948243;29;20106;-76
2022/12/15 09:25:46;;;;;;;22.10;12.38;;;;;;;;;;4934565;29;20130;-75
2022/12/15 09:28:13;;;;;;;26.45;13.02;;;;;;;;;;4934936;29;20155;-77
2022/12/15 09:30:39;;;;;;;27.40;12.38;;;;;;;;;;4933166;28;20479;-76
2022/12/15 09:33:05;;;;;;;21.83;12.48;;;;;;;;;;4915414;29;20566;-75
2022/12/15 09:35:31;;;;;;;18.10;11.63;;;;;;;;;;4915681;29;20057;-74
2022/12/15 09:37:57;;;;;;;22.45;13.35;;;;;;;;;;4915458;29;20513;-77
2022/12/15 09:40:23;;;;;;;25.88;12.77;;;;;;;;;;4913993;29;20031;-75
2022/12/15 09:42:54;;;;;;;35.65;13.07;;;;;;;;;;4933839;28;20042;-77
2022/12/15 09:45:42;;;;;;;31.73;14.40;;;;;;;;;;4933757;29;20103;-77
2022/12/15 09:48:13;;;;;;;24.48;12.80;;;;;;;;;;4944155;29;20114;-79
2022/12/15 09:50:41;;;;;;;19.05;11.85;;;;;;;;;;4953655;29;20035;-75
2022/12/15 09:53:13;;;;;;;23.10;11.50;;;;;;;;;;4959638;28;20039;-76
2022/12/15 09:55:39;;;;;;;26.17;11.95;;;;;;;;;;4937062;29;20127;-75
2022/12/15 09:58:39;;;;;;;19.83;11.43;;;;;;;;;;4914856;29;20452;-75
2022/12/15 10:01:26;;;;;;;18.73;10.77;;;;;;;;;;4906065;29;20047;-75
2022/12/15 10:04:25;;;;;;;19.98;10.80;;;;;;;;;;4917166;29;20111;-76
2022/12/15 10:07:14;;;;;;;19.60;10.98;;;;;;;;;;4926339;29;20493;-75
2022/12/15 10:09:40;;;;;;;18.38;11.27;;;;;;;;;;4932831;29;20036;-77
2022/12/15 10:12:22;;;;;;;28.73;11.45;;;;;;;;;;4934128;29;20119;-76
2022/12/15 10:15:08;;;;;;;20.10;10.32;;;;;;;;;;4925758;29;20111;-74
2022/12/15 10:18:00;;;;;;;21.98;11.88;;;;;;;;;;4932307;29;20037;-75
2022/12/15 10:20:29;;;;;;;21.42;12.02;;;;;;;;;;4927758;29;20036;-75
2022/12/15 10:23:15;;;;;;;17.20;11.07;;;;;;;;;;4932868;29;20055;-76
2022/12/15 10:25:47;;;;;;;21.65;9.77;;;;;;;;;;4933721;29;20134;-75
2022/12/15 10:28:35;;;;;;;19.50;10.88;;;;;;;;;;4931092;29;20046;-74
2022/12/15 10:31:27;;;;;;;18.83;9.60;;;;;;;;;;4933467;29;20107;-75
2022/12/15 10:34:00;;;;;;;22.30;9.57;;;;;;;;;;4924485;29;20020;-75
2022/12/15 10:36:25;;;;;;;19.83;10.02;;;;;;;;;;4928253;29;20084;-76
2022/12/15 10:38:51;;;;;;;23.90;10.52;;;;;;;;;;4934351;29;20482;-75
2022/12/15 10:41:25;;;;;;;14.13;9.82;;;;;;;;;;4933357;29;20039;-74
2022/12/15 10:43:53;;;;;;;16.70;9.20;;;;;;;;;;4932748;29;20084;-75
2022/12/15 10:46:30;;;;;;;15.15;9.57;;;;;;;;;;4931591;29;20031;-74
2022/12/15 10:48:58;;;;;;;19.65;9.90;;;;;;;;;;4948970;29;20047;-75
2022/12/15 10:51:35;;;;;;;29.77;10.90;;;;;;;;;;4933063;29;20034;-74
2022/12/15 10:54:09;;;;;;;26.13;10.52;;;;;;;;;;4927720;29;20074;-74
2022/12/15 10:56:55;;;;;;;;;;;;;;;;;;4920164;29;20390;-76
2022/12/15 10:59:32;;;;;;;20.58;11.68;;;;;;;;;;4938393;29;20376;-76
2022/12/15 11:02:37;;;;;;;17.83;11.30;;;;;;;;;;4941041;29;20080;-77
2022/12/15 11:05:14;;;;;;;22.35;11.40;;;;;;;;;;4935898;29;20252;-75
2022/12/15 11:07:44;;;;;;;21.45;11.73;;;;;;;;;;4917785;29;20434;-76
2022/12/15 11:10:17;;;;;;;23.08;12.05;;;;;;;;;;4919034;29;20062;-75
2022/12/15 11:13:10;;;;;;;16.58;11.18;;;;;;;;;;4930392;29;20046;-75
2022/12/15 11:15:39;;;;;;;21.00;11.05;;;;;;;;;;4937434;28;20063;-75
2022/12/15 11:18:42;;;;;;;27.23;11.75;;;;;;;;;;4937530;29;20438;-75
2022/12/15 11:21:08;;;;;;;16.70;10.57;;;;;;;;;;4936242;29;20580;-75
2022/12/15 11:23:54;;;;;;;19.40;10.18;;;;;;;;;;4932247;28;20422;-75
2022/12/15 11:26:37;;;;;;;26.50;11.07;;;;;;;;;;4918217;29;20032;-75
2022/12/15 11:29:22;;;;;;;16.00;9.37;;;;;;;;;;4915807;29;20553;-76
2022/12/15 11:31:51;;;;;;;15.43;10.23;;;;;;;;;;4926873;29;20393;-78
2022/12/15 11:34:23;;;;;;;21.75;11.00;;;;;;;;;;4935914;29;20474;-76
2022/12/15 11:37:27;;;;;;;16.23;10.30;;;;;;;;;;4936508;29;20105;-75
2022/12/15 11:40:14;;;;;;;21.65;10.07;;;;;;;;;;4937129;29;20075;-75
2022/12/15 11:42:49;;;;;;;19.33;9.80;;;;;;;;;;4936512;29;20119;-74
2022/12/15 11:45:46;;;;;;;15.98;9.95;;;;;;;;;;4936668;29;20071;-75
2022/12/15 11:48:31;;;;;;;23.13;11.60;;;;;;;;;;4926277;28;20112;-74
2022/12/15 11:51:04;;;;;;;15.25;9.30;;;;;;;;;;4917828;29;20370;-76
2022/12/15 11:53:36;;;;;;;18.70;10.13;;;;;;;;;;4922589;29;20035;-75
2022/12/15 11:56:07;;;;;;;18.00;10.43;;;;;;;;;;4936458;29;20032;-75
2022/12/15 11:58:42;;;;;;;22.73;10.20;;;;;;;;;;4932602;29;20038;-75
2022/12/15 12:01:32;;;;;;;21.33;11.30;;;;;;;;;;4932436;29;20047;-76
2022/12/15 12:04:22;;;;;;;21.42;13.13;;;;;;;;;;4923010;29;20031;-76
2022/12/15 12:07:15;;;;;;;26.25;14.77;;;;;;;;;;4932311;29;20031;-78
2022/12/15 12:09:53;;;;;;;22.13;12.43;;;;;;;;;;4948097;29;20674;-77
2022/12/15 12:12:42;;;;;;;24.30;13.65;;;;;;;;;;4933299;29;20110;-74
2022/12/15 12:15:23;;;;;;;21.25;10.40;;;;;;;;;;4923572;29;20249;-75
2022/12/15 12:17:52;;;;;;;19.33;11.07;;;;;;;;;;4916113;29;20063;-75
2022/12/15 12:20:39;;;;;;;24.08;11.25;;;;;;;;;;4914301;29;20471;-76
2022/12/15 12:23:31;;;;;;;17.35;10.00;;;;;;;;;;4915455;29;20036;-74
2022/12/15 12:26:09;;;;;;;14.82;10.02;;;;;;;;;;4932110;29;20118;-73
2022/12/15 12:28:57;;;;;;;26.00;12.15;;;;;;;;;;4933596;29;20078;-75
2022/12/15 12:31:58;;;;;;;27.05;11.68;;;;;;;;;;4934715;28;20042;-74
2022/12/15 12:34:48;;;;;;;15.20;9.60;;;;;;;;;;4934962;29;20127;-75
2022/12/15 12:37:36;;;;;;;16.98;10.18;;;;;;;;;;4933646;29;20061;-75
2022/12/15 12:40:14;;;;;;;25.05;14.98;;;;;;;;;;4936046;29;20040;-75
2022/12/15 12:42:52;;;;;;;20.55;11.63;;;;;;;;;;4950306;29;20081;-77
2022/12/15 12:45:20;;;;;;;23.05;12.18;;;;;;;;;;4934152;29;20027;-74
2022/12/15 12:47:50;;;;;;;22.77;12.02;;;;;;;;;;4933285;29;20028;-75
2022/12/15 12:50:20;;;;;;;18.48;10.90;;;;;;;;;;4934651;29;20144;-75
2022/12/15 12:52:52;;;;;;;21.50;11.55;;;;;;;;;;4935480;29;20125;-75
2022/12/15 12:55:29;;;;;;;25.10;11.30;;;;;;;;;;4933844;29;20086;-74
2022/12/15 12:57:55;;;;;;;25.10;11.55;;;;;;;;;;4935457;29;20039;-75
2022/12/15 13:00:31;;;;;;;33.67;11.75;;;;;;;;;;4936088;29;20027;-74
2022/12/15 13:03:16;;;;;;;21.98;11.82;;;;;;;;;;4936102;29;20035;-74
2022/12/15 13:05:44;;;;;;;26.15;11.73;;;;;;;;;;4934899;29;20039;-74
2022/12/15 13:08:16;;;;;;;36.20;12.93;;;;;;;;;;4936372;29;20107;-75
2022/12/15 13:10:45;;;;;;;21.50;11.88;;;;;;;;;;4936134;29;20039;-73
2022/12/15 13:13:31;;;;;;;18.92;11.77;;;;;;;;;;4935826;29;20098;-72
2022/12/15 13:16:07;;;;;;;21.30;11.93;;;;;;;;;;4919757;29;20034;-74
2022/12/15 13:19:02;;;;;;;23.27;12.52;;;;;;;;;;4917335;29;20123;-74
2022/12/15 13:21:43;;;;;;;18.33;10.88;;;;;;;;;;4916546;29;20040;-74
2022/12/15 13:24:24;;;;;;;15.85;9.70;;;;;;;;;;4916016;29;20072;-73
2022/12/15 13:26:51;;;;;;;21.85;10.27;;;;;;;;;;4916588;29;20535;-73
2022/12/15 13:29:20;;;;;;;17.90;10.88;;;;;;;;;;4916818;29;20163;-74
2022/12/15 13:31:49;;;;;;;26.83;12.48;;;;;;;;;;4915493;29;20028;-74
2022/12/15 13:34:19;;;;;;;25.58;11.73;;;;;;;;;;4916738;29;20028;-75
2022/12/15 13:36:49;;;;;;;16.92;10.77;;;;;;;;;;4916302;29;20032;-75
2022/12/15 13:39:17;;;;;;;20.52;11.77;;;;;;;;;;4916196;29;20036;-74
2022/12/15 13:42:03;;;;;;;25.23;12.52;;;;;;;;;;4917139;29;20072;-75
2022/12/15 13:44:37;;;;;;;19.00;11.80;;;;;;;;;;4916990;29;20052;-75
2022/12/15 13:47:14;;;;;;;24.27;12.50;;;;;;;;;;4916348;29;20120;-74
2022/12/15 13:49:57;;;;;;;22.38;12.50;;;;;;;;;;4915119;29;20048;-74
2022/12/15 13:52:23;;;;;;;22.30;12.23;;;;;;;;;;4916446;29;20058;-76
2022/12/15 13:54:56;;;;;;;27.08;14.90;;;;;;;;;;4917436;29;20482;-79
2022/12/15 13:57:24;;;;;;;27.90;15.93;;;;;;;;;;4916662;29;20044;-80
2022/12/15 14:00:17;;;;;;;21.63;12.77;;;;;;;;;;4917343;29;20079;-76
2022/12/15 14:02:44;;;;;;;23.10;12.75;;;;;;;;;;4916086;29;20033;-76
2022/12/15 14:05:24;;;;;;;29.27;13.65;;;;;;;;;;4916393;29;20028;-75
2022/12/15 14:07:53;;;;;;;35.90;12.95;;;;;;;;;;4916129;29;20135;-75
2022/12/15 14:10:37;;;;;;;20.88;10.95;;;;;;;;;;4916604;29;20032;-75
2022/12/15 14:13:32;;;;;;;25.60;11.93;;;;;;;;;;4914867;29;20036;-75
2022/12/15 14:15:58;;;;;;;21.48;11.70;;;;;;;;;;4914117;29;20058;-75
2022/12/15 14:18:28;;;;;;;26.05;12.20;;;;;;;;;;4916174;29;20027;-75
2022/12/15 14:20:54;;;;;;;23.38;13.38;;;;;;;;;;4916263;29;20483;-76
2022/12/15 14:23:23;;;;;;;24.10;14.02;;;;;;;;;;4922822;29;20564;-78
2022/12/15 14:26:06;;;;;;;25.58;13.27;;;;;;;;;;4931905;29;20126;-76
2022/12/15 14:28:34;;;;;;;27.47;13.33;;;;;;;;;;4931481;29;20040;-76
2022/12/15 14:31:06;;;;;;;20.15;13.25;;;;;;;;;;4928571;29;20039;-75
2022/12/15 14:33:42;;;;;;;24.27;14.18;;;;;;;;;;4930893;29;20102;-75
2022/12/15 14:36:11;;;;;;;22.77;15.63;;;;;;;;;;4934822;29;20447;-73
2022/12/15 14:38:43;;;;;;;23.90;15.60;;;;;;;;;;4915699;29;20115;-73
2022/12/15 14:41:20;;;;;;;23.48;14.48;;;;;;;;;;4933956;29;20038;-73
2022/12/15 14:43:48;;;;;;;20.75;13.65;;;;;;;;;;4933928;29;20144;-74
2022/12/15 14:46:21;;;;;;;23.65;14.50;;;;;;;;;;4931649;29;20027;-74
2022/12/15 14:48:59;;;;;;;33.10;16.73;;;;;;;;;;4933325;29;20042;-75
2022/12/15 14:51:27;;;;;;;33.58;17.77;;;;;;;;;;4929626;29;20302;-74
2022/12/15 14:53:53;;;;;;;32.85;17.98;;;;;;;;;;4928411;29;20028;-75
2022/12/15 14:56:29;;;;;;;37.00;19.75;;;;;;;;;;4935145;29;20517;-75
2022/12/15 14:59:02;;;;;;;40.03;20.95;;;;;;;;;;4934305;29;20484;-76
2022/12/15 15:01:39;;;;;;;;;;;;;;;;;;4949325;29;20118;-74
2022/12/15 15:04:25;;;;;;;40.70;23.17;;;;;;;;;;4934145;29;19918;-75
2022/12/15 15:07:04;;;;;;;43.45;25.58;;;;;;;;;;4933579;29;20557;-74
2022/12/15 15:09:33;;;;;;;56.85;32.50;;;;;;;;;;4931875;29;20042;-76
2022/12/15 15:12:03;;;;;;;61.97;33.17;;;;;;;;;;4928966;29;20104;-74
2022/12/15 15:14:39;;;;;;;58.88;29.25;;;;;;;;;;4927210;29;20035;-73
2022/12/15 15:17:15;;;;;;;41.00;25.05;;;;;;;;;;4927335;29;20474;-74
2022/12/15 15:20:18;;;;;;;38.15;22.23;;;;;;;;;;4933463;29;20036;-77
2022/12/15 15:23:00;;;;;;;64.65;31.80;;;;;;;;;;4930493;29;20567;-78
2022/12/15 15:25:37;;;;;;;64.30;33.60;;;;;;;;;;4931917;29;20039;-76
2022/12/15 15:28:22;;;;;;;61.67;34.17;;;;;;;;;;4928767;29;20114;-76
2022/12/15 15:30:53;;;;;;;54.97;29.73;;;;;;;;;;4932206;29;20202;-75
2022/12/15 15:33:20;;;;;;;42.92;27.90;;;;;;;;;;4932648;29;20469;-76
2022/12/15 15:35:52;;;;;;;40.17;25.33;;;;;;;;;;4931358;29;20450;-75
2022/12/15 15:38:30;;;;;;;46.35;26.83;;;;;;;;;;4929956;29;20035;-76
2022/12/15 15:40:59;;;;;;;41.55;24.95;;;;;;;;;;4932040;29;20036;-75
2022/12/15 15:43:26;;;;;;;39.97;22.23;;;;;;;;;;4934085;29;20039;-76
2022/12/15 15:46:05;;;;;;;42.70;28.02;;;;;;;;;;4934508;29;20032;-76
2022/12/15 15:48:34;;;;;;;49.50;27.13;;;;;;;;;;4935947;29;20035;-78
2022/12/15 15:51:01;;;;;;;74.38;33.67;;;;;;;;;;4931977;29;20034;-77
2022/12/15 15:53:30;;;;;;;69.53;35.65;;;;;;;;;;4949507;28;20551;-78
2022/12/15 15:55:57;;;;;;;55.97;34.40;;;;;;;;;;4933863;29;20043;-77
2022/12/15 15:58:23;;;;;;;62.58;31.17;;;;;;;;;;4936168;29;20031;-77
2022/12/15 16:00:49;;;;;;;60.13;30.35;;;;;;;;;;4934553;29;20029;-77
2022/12/15 16:03:15;;;;;;;51.90;30.33;;;;;;;;;;4935791;29;20130;-77
2022/12/15 16:05:41;;;;;;;44.15;27.00;;;;;;;;;;4933564;29;20222;-76
2022/12/15 16:08:14;;;;;;;64.38;30.88;;;;;;;;;;4936433;29;20095;-79
2022/12/15 16:10:44;;;;;;;58.42;28.70;;;;;;;;;;4930375;29;20130;-78
2022/12/15 16:13:10;;;;;;;58.75;31.17;;;;;;;;;;4936133;28;20039;-78
2022/12/15 16:15:36;;;;;;;96.95;47.47;;;;;;;;;;4934235;29;20500;-78
2022/12/15 16:18:03;;;;;;;77.95;45.90;;;;;;;;;;4930632;29;20031;-78
2022/12/15 16:20:29;;;;;;;90.85;47.55;;;;;;;;;;4936358;29;20047;-75
2022/12/15 16:23:22;;;;;;;71.78;41.42;;;;;;;;;;4936229;29;20074;-75
2022/12/15 16:25:54;;;;;;;62.85;37.80;;;;;;;;;;4930184;29;20047;-77
2022/12/15 16:28:22;;;;;;;60.80;35.63;;;;;;;;;;4936295;29;20111;-76
2022/12/15 16:30:49;;;;;;;69.35;40.63;;;;;;;;;;4932746;29;20047;-78
2022/12/15 16:33:15;;;;;;;70.00;42.53;;;;;;;;;;4937705;28;20044;-78
2022/12/15 16:35:43;;;;;;;69.82;44.38;;;;;;;;;;4936886;29;20043;-79
2022/12/15 16:38:18;;;;;;;70.25;44.75;;;;;;;;;;4936363;29;20490;-77
2022/12/15 16:40:44;;;;;;;78.07;41.40;;;;;;;;;;4936456;29;20135;-76
2022/12/15 16:43:22;;;;;;;77.28;43.28;;;;;;;;;;4918616;29;20035;-78
2022/12/15 16:45:50;;;;;;;65.70;41.22;;;;;;;;;;4919054;29;20051;-77
2022/12/15 16:48:16;;;;;;;75.20;41.20;;;;;;;;;;4936013;29;20066;-77
2022/12/15 16:50:47;;;;;;;71.20;43.63;;;;;;;;;;4935355;29;20035;-77
2022/12/15 16:53:22;;;;;;;76.50;45.50;;;;;;;;;;4934668;29;20090;-77
2022/12/15 16:55:55;;;;;;;72.20;41.85;;;;;;;;;;4935668;29;20035;-77
2022/12/15 16:58:21;;;;;;;68.20;45.20;;;;;;;;;;4934114;29;20040;-75
2022/12/15 17:00:49;;;;;;;69.32;43.78;;;;;;;;;;4933772;29;20023;-76
2022/12/15 17:03:17;;;;;;;69.53;42.42;;;;;;;;;;4935223;29;20040;-75
2022/12/15 17:05:47;;;;;;;67.88;42.17;;;;;;;;;;4944417;29;20472;-76
2022/12/15 17:08:24;;;;;;;95.72;50.35;;;;;;;;;;4938483;28;20044;-76